Latest Coastal Weather Observations for Sydney Harbour

IDN60701

Issued at 10:41 am EST Friday 14 August 2020 (issued every 10 minutes, with the page automatically refreshed every 10 minutes)

About coastal observations | Map of coastal stations | Coastal observations for NSW | Marine services | Other Formats
Station Details ID: 066196 Name: WEDDING CAKE WEST Lat: -33.84 Lon: 151.26 Height: 6.0 m
Data from the previous 72 hours. | See also: Recent months at Sydney Harbour
Date/Time
EST
Wind Sea
Height
m
Swell Vis
km
Cloud Weather Temp
°C
Press
hPa
Rain since
9am
mm
Dir  Spd
kts
Gust
kts
Height
m
Period
s
Dir
14/10:30am SW 8 9 - - - - - - - 15.3 - -
14/10:00am SW 7 8 - - - - - - - 14.8 - -
14/09:30am SW 7 8 - - - - - - - 14.3 - -
14/09:00am WSW 6 7 - - - - - - - 14.4 - -
14/08:30am SW 5 6 - - - - - - - 13.7 - -
14/08:00am WSW 6 9 - - - - - - - 13.5 - -
14/07:30am WSW 5 7 - - - - - - - 13.4 - -
14/07:00am WSW 3 6 - - - - - - - 13.4 - -
14/06:30am W 4 5 - - - - - - - 12.6 - -
14/06:00am SW 3 5 - - - - - - - 12.6 - -
14/05:30am CALM 0 0 - - - - - - - 12.8 - -
14/05:00am SW 1 3 - - - - - - - 13.3 - -
14/04:30am SW 3 4 - - - - - - - 13.6 - -
14/04:00am CALM 0 0 - - - - - - - 13.5 - -
14/03:30am N 1 3 - - - - - - - 13.4 - -
14/03:00am N 1 4 - - - - - - - 13.5 - -
14/02:30am CALM 0 0 - - - - - - - 14.0 - -
14/02:00am W 3 4 - - - - - - - 13.8 - -
14/01:30am SW 3 5 - - - - - - - 14.8 - -
14/01:00am WSW 4 5 - - - - - - - 14.7 - -
14/12:30am CALM 0 0 - - - - - - - 14.6 - -
14/12:00am SW 4 5 - - - - - - - 14.7 - -
 
Date/Time
EST
Wind Sea
Height
m
Swell Vis
km
Cloud Weather Temp
°C
Press
hPa
Rain since
9am
mm
Dir  Spd
kts
Gust
kts
Height
m
Period
s
Dir
13/11:30pm CALM 0 0 - - - - - - - 14.8 - -
13/11:00pm WNW 4 5 - - - - - - - 15.3 - -
13/10:30pm NNW 5 7 - - - - - - - 17.2 - -
13/10:00pm NNW 6 8 - - - - - - - 17.7 - -
13/09:30pm NNW 6 7 - - - - - - - 16.8 - -
13/09:00pm N 5 6 - - - - - - - 17.7 - -
13/08:30pm N 5 7 - - - - - - - 16.9 - -
13/08:00pm N 5 6 - - - - - - - 16.8 - -
13/07:30pm N 5 6 - - - - - - - 17.0 - -
13/07:00pm E 2 4 - - - - - - - 17.3 - -
13/06:30pm E 5 7 - - - - - - - 17.2 - -
13/06:00pm E 5 6 - - - - - - - 17.7 - -
13/05:30pm N 6 7 - - - - - - - 17.8 - -
13/05:00pm NE 9 10 - - - - - - - 18.0 - -
13/04:30pm ENE 5 7 - - - - - - - 18.4 - -
13/04:00pm W 4 5 - - - - - - - 21.7 - -
13/03:30pm WSW 5 7 - - - - - - - 21.2 - -
13/03:00pm W 5 8 - - - - - - - 21.1 - -
13/02:30pm W 7 10 - - - - - - - 20.9 - -
13/02:00pm WSW 8 13 - - - - - - - 20.6 - -
13/01:30pm WSW 8 11 - - - - - - - 20.3 - -
13/01:00pm WSW 12 15 - - - - - - - 20.0 - -
13/12:30pm W 9 13 - - - - - - - 19.8 - -
13/12:00pm WSW 8 10 - - - - - - - 19.1 - -
13/11:30am W 8 11 - - - - - - - 18.7 - -
13/11:00am WSW 7 9 - - - - - - - 18.2 - -
13/10:30am SW 7 10 - - - - - - - 17.1 - -
13/10:00am N 2 4 - - - - - - - 16.3 - -
13/09:30am NNE 3 5 - - - - - - - 15.9 - -
13/09:00am CALM 0 0 - - - - - - - 13.9 - -
13/08:30am CALM 0 0 - - - - - - - 13.5 - -
13/08:00am CALM 0 0 - - - - - - - 13.4 - -
13/07:30am WSW 1 3 - - - - - - - 12.5 - -
13/07:00am CALM 0 3 - - - - - - - 12.3 - -
13/06:30am WSW 4 5 - - - - - - - 11.9 - -
13/06:00am WSW 5 6 - - - - - - - 11.7 - -
13/05:30am W 5 6 - - - - - - - 11.7 - -
13/05:00am CALM 0 4 - - - - - - - 12.2 - -
13/04:30am WSW 7 9 - - - - - - - 12.1 - -
13/04:00am NNW 6 9 - - - - - - - 12.3 - -
13/03:30am SW 6 7 - - - - - - - 12.5 - -
13/03:00am WNW 6 11 - - - - - - - 12.6 - -
13/02:30am W 11 17 - - - - - - - 12.1 - -
13/02:00am W 6 8 - - - - - - - 12.4 - -
13/01:30am W 5 7 - - - - - - - 12.7 - -
13/01:00am NNW 3 5 - - - - - - - 13.5 - -
13/12:30am SW 1 3 - - - - - - - 13.3 - -
13/12:00am NW 2 4 - - - - - - - 13.2 - -
 
Date/Time
EST
Wind Sea
Height
m
Swell Vis
km
Cloud Weather Temp
°C
Press
hPa
Rain since
9am
mm
Dir  Spd
kts
Gust
kts
Height
m
Period
s
Dir
12/11:30pm WSW 3 4 - - - - - - - 13.4 - -
12/11:00pm WSW 3 4 - - - - - - - 13.7 - -
12/10:30pm WSW 2 3 - - - - - - - 13.6 - -
12/10:00pm CALM 0 2 - - - - - - - 13.8 - -
12/09:30pm WSW 3 4 - - - - - - - 14.2 - -
12/09:00pm W 5 6 - - - - - - - 14.2 - -
12/08:30pm NNW 4 7 - - - - - - - 14.6 - -
12/08:00pm NNE 11 16 - - - - - - - 15.3 - -
12/07:43pm N 11 30 - - - - - - - 15.1 - -
12/07:42pm N 9 20 - - - - - - - 16.1 - -
12/07:30pm N 3 4 - - - - - - - 15.8 - -
12/07:00pm NNE 6 7 - - - - - - - 16.0 - -
12/06:30pm NE 7 8 - - - - - - - 16.1 - -
12/06:00pm N 6 9 - - - - - - - 16.2 - -
12/05:30pm NNE 9 11 - - - - - - - 16.2 - -
12/05:00pm NNE 9 11 - - - - - - - 16.3 - -
12/04:30pm NNE 10 11 - - - - - - - 16.3 - -
12/04:00pm NNE 9 11 - - - - - - - 16.5 - -
12/03:30pm NNE 9 10 - - - - - - - 16.7 - -
12/03:00pm NNE 8 10 - - - - - - - 16.7 - -
12/02:30pm NNE 7 9 - - - - - - - 16.8 - -
12/02:00pm NNW 8 9 - - - - - - - 17.7 - -
12/01:30pm N 8 11 - - - - - - - 16.8 - -
12/01:00pm N 8 11 - - - - - - - 17.6 - -
12/12:30pm N 9 11 - - - - - - - 16.2 - -
12/12:00pm NNE 10 12 - - - - - - - 16.0 - -
12/11:30am NE 7 11 - - - - - - - 15.5 - -
12/11:00am ENE 4 5 - - - - - - - 15.0 - -
12/10:30am SW 2 4 - - - - - - - 15.0 - -
12/10:00am NNW 3 5 - - - - - - - 14.8 - -
12/09:30am N 3 4 - - - - - - - 14.3 - -
12/09:00am N 4 4 - - - - - - - 13.9 - -
12/08:30am E 2 4 - - - - - - - 13.3 - -
12/08:00am WSW 3 4 - - - - - - - 12.5 - -
12/07:30am WSW 1 3 - - - - - - - 12.3 - -
12/07:00am CALM 0 0 - - - - - - - 12.2 - -
12/06:30am WSW 4 4 - - - - - - - 12.1 - -
12/06:00am WNW 5 7 - - - - - - - 12.3 - -
12/05:30am W 1 3 - - - - - - - 12.3 - -
12/05:00am WNW 3 4 - - - - - - - 12.4 - -
12/04:30am WSW 4 5 - - - - - - - 12.5 - -
12/04:00am SW 5 6 - - - - - - - 12.2 - -
12/03:30am WSW 6 7 - - - - - - - 12.0 - -
12/03:00am WSW 5 6 - - - - - - - 12.8 - -
12/02:30am WSW 5 6 - - - - - - - 12.7 - -
12/02:00am W 3 4 - - - - - - - 13.0 - -
12/01:30am W 1 4 - - - - - - - 13.3 - -
12/01:00am N 5 7 - - - - - - - 13.7 - -
12/12:30am N 6 7 - - - - - - - 13.6 - -
12/12:00am N 7 9 - - - - - - - 14.4 - -
 
Date/Time
EST
Wind Sea
Height
m
Swell Vis
km
Cloud Weather Temp
°C
Press
hPa
Rain since
9am
mm
Dir  Spd
kts
Gust
kts
Height
m
Period
s
Dir
11/11:30pm N 7 9 - - - - - - - 14.1 - -
11/11:00pm N 8 9 - - - - - - - 14.3 - -
11/10:30pm N 6 7 - - - - - - - 14.2 - -
11/10:00pm NNE 5 7 - - - - - - - 14.0 - -
11/09:30pm N 6 7 - - - - - - - 14.1 - -
11/09:00pm N 7 7 - - - - - - - 14.4 - -
11/08:30pm N 6 7 - - - - - - - 14.4 - -
11/08:00pm NNE 6 7 - - - - - - - 14.9 - -
11/07:30pm N 6 7 - - - - - - - 14.7 - -
11/07:00pm N 5 6 - - - - - - - 14.7 - -
11/06:30pm NE 7 7 - - - - - - - 15.6 - -
11/06:00pm NE 6 8 - - - - - - - 15.5 - -
11/05:30pm ENE 5 7 - - - - - - - 15.6 - -
11/05:00pm ENE 5 7 - - - - - - - 15.5 - -
11/04:30pm E 5 7 - - - - - - - 15.9 - -
11/04:00pm E 8 9 - - - - - - - 16.5 - -
11/03:30pm E 8 9 - - - - - - - 15.6 - -
11/03:00pm SE 3 4 - - - - - - - 17.1 - -
11/02:30pm ESE 7 9 - - - - - - - 15.7 - -
11/02:00pm SSE 3 5 - - - - - - - 16.0 - -
11/01:30pm S 5 5 - - - - - - - 15.8 - -
11/01:00pm SSW 7 8 - - - - - - - 15.4 - -
11/12:30pm SW 7 8 - - - - - - - 15.3 - -
11/12:00pm W 8 11 - - - - - - - 15.1 - -
11/11:30am WSW 8 9 - - - - - - - 14.5 - -
11/11:00am W 9 11 - - - - - - - 14.2 - -

Other formats

Comma delimited format used in spreadsheet applications
http://www.bom.gov.au/fwo/IDN60701/IDN60701.95766.axf

JavaScript Object Notation format (JSON) in row-major order
http://www.bom.gov.au/fwo/IDN60701/IDN60701.95766.json

Data quality

Most of these data are generated automatically and are frequently updated. Quality checks on data are not normally performed. It is possible for incorrect values to appear. Refer to information at About Latest Weather Observations and please check the disclaimer before using these data.